createdAt,value
2017-10-20T00:00:14.287Z,1005.68
2017-10-20T00:01:14.415Z,1005.61
2017-10-20T00:03:14.591Z,1005.62
2017-10-20T00:04:14.430Z,1005.67
2017-10-20T00:05:14.764Z,1005.69
2017-10-20T00:06:14.509Z,1005.62
2017-10-20T00:07:14.552Z,1005.67
2017-10-20T00:08:14.587Z,1005.63
2017-10-20T00:09:14.602Z,1005.64
2017-10-20T00:10:14.634Z,1005.61
2017-10-20T00:11:14.967Z,1005.61
2017-10-20T00:12:14.705Z,1005.60
2017-10-20T00:13:14.735Z,1005.63
2017-10-20T00:14:14.765Z,1005.67
2017-10-20T00:15:14.809Z,1005.66
2017-10-20T00:16:14.840Z,1005.69
2017-10-20T00:17:15.225Z,1005.66
2017-10-20T00:18:14.924Z,1005.68
2017-10-20T00:19:14.948Z,1005.67
2017-10-20T00:20:14.967Z,1005.69
2017-10-20T00:21:15.067Z,1005.68
2017-10-20T00:22:15.043Z,1005.71
2017-10-20T00:23:15.397Z,1005.73
2017-10-20T00:24:15.132Z,1005.72
2017-10-20T00:25:15.142Z,1005.74
2017-10-20T00:26:15.179Z,1005.75
2017-10-20T00:27:15.256Z,1005.78
2017-10-20T00:28:15.308Z,1005.77
2017-10-20T00:29:15.573Z,1005.77
2017-10-20T00:30:15.310Z,1005.81
2017-10-20T00:31:15.368Z,1005.83
2017-10-20T00:32:15.387Z,1005.81
2017-10-20T00:33:15.427Z,1005.82
2017-10-20T00:34:15.447Z,1005.84
2017-10-20T00:35:15.473Z,1005.78
2017-10-20T00:36:15.834Z,1005.74
2017-10-20T00:37:15.551Z,1005.74
2017-10-20T00:38:15.607Z,1005.70
2017-10-20T00:39:15.630Z,1005.70
2017-10-20T00:40:15.673Z,1005.66
2017-10-20T00:41:15.692Z,1005.66
2017-10-20T00:42:15.717Z,1005.61
2017-10-20T00:43:16.473Z,1005.59
2017-10-20T00:44:15.781Z,1005.74
2017-10-20T00:45:15.816Z,1005.81
2017-10-20T00:46:15.872Z,1005.83
2017-10-20T00:47:15.909Z,1005.82
2017-10-20T00:48:15.913Z,1005.87
2017-10-20T00:49:16.260Z,1005.88
2017-10-20T00:50:15.991Z,1005.84
2017-10-20T00:51:16.138Z,1005.84
2017-10-20T00:52:16.055Z,1005.75
2017-10-20T00:53:16.094Z,1005.68
2017-10-20T00:54:16.369Z,1005.64
2017-10-20T00:55:16.450Z,1005.59
2017-10-20T00:56:16.187Z,1005.51
2017-10-20T00:57:16.221Z,1005.48
2017-10-20T00:58:16.253Z,1005.49
2017-10-20T00:59:16.289Z,1005.56
2017-10-20T01:00:16.333Z,1005.53
2017-10-20T01:01:16.662Z,1005.60
2017-10-20T01:02:16.400Z,1005.61
2017-10-20T01:03:16.419Z,1005.59
2017-10-20T01:04:16.460Z,1005.56
2017-10-20T01:05:16.786Z,1005.50
2017-10-20T01:06:16.522Z,1005.54
2017-10-20T01:07:16.854Z,1005.49
2017-10-20T01:08:16.660Z,1005.45
2017-10-20T01:09:16.624Z,1005.44
2017-10-20T01:10:16.666Z,1005.49
2017-10-20T01:11:16.692Z,1005.44
2017-10-20T01:12:16.726Z,1005.37
2017-10-20T01:13:17.059Z,1005.39
2017-10-20T01:14:16.844Z,1005.33
2017-10-20T01:15:16.821Z,1005.33
2017-10-20T01:16:16.870Z,1005.35
2017-10-20T01:17:16.912Z,1005.33
2017-10-20T01:18:16.934Z,1005.31
2017-10-20T01:19:17.259Z,1005.29
2017-10-20T01:20:17.015Z,1005.28
2017-10-20T01:21:17.041Z,1005.32
2017-10-20T01:22:17.255Z,1005.30
2017-10-20T01:23:17.170Z,1005.25
2017-10-20T01:24:17.126Z,1005.22
2017-10-20T01:25:17.486Z,1005.21
2017-10-20T01:26:17.213Z,1005.23
2017-10-20T01:27:17.258Z,1005.28
2017-10-20T01:28:17.314Z,1005.26
2017-10-20T01:29:17.351Z,1005.29
2017-10-20T01:30:17.325Z,1005.29
2017-10-20T01:31:17.693Z,1005.29
2017-10-20T01:32:17.408Z,1005.24
2017-10-20T01:33:17.702Z,1005.25
2017-10-20T01:34:17.661Z,1005.28
2017-10-20T01:35:17.498Z,1005.22
2017-10-20T01:36:17.532Z,1005.24
2017-10-20T01:37:17.959Z,1005.27
2017-10-20T01:38:17.594Z,1005.20
2017-10-20T01:39:17.628Z,1005.16
2017-10-20T01:40:17.704Z,1005.13
2017-10-20T01:41:17.701Z,1005.09
2017-10-20T01:42:17.772Z,1005.05
2017-10-20T01:43:18.066Z,1005.14
2017-10-20T01:44:17.798Z,1005.17
2017-10-20T01:45:17.830Z,1005.24
2017-10-20T01:46:17.887Z,1005.23
2017-10-20T01:47:18.072Z,1005.24
2017-10-20T01:48:17.958Z,1005.19
2017-10-20T01:49:18.314Z,1005.10
2017-10-20T01:50:18.149Z,1005.19
2017-10-20T01:51:18.095Z,1005.19
2017-10-20T01:52:18.082Z,1005.18
2017-10-20T01:53:18.103Z,1005.12
2017-10-20T01:54:18.134Z,1005.08
2017-10-20T01:55:18.567Z,1005.03
2017-10-20T01:56:18.203Z,1005.07
2017-10-20T01:57:20.332Z,1004.95
2017-10-20T01:58:18.286Z,1004.91
2017-10-20T01:59:18.302Z,1004.91
2017-10-20T02:00:18.882Z,1004.93
2017-10-20T02:01:18.368Z,1004.99
2017-10-20T02:02:18.699Z,1005.10
2017-10-20T02:03:18.475Z,1005.03
2017-10-20T02:04:18.485Z,1005.03
2017-10-20T02:05:18.508Z,1005.14
2017-10-20T02:06:18.537Z,1005.12
2017-10-20T02:07:18.565Z,1005.10
2017-10-20T02:08:18.917Z,1005.04
2017-10-20T02:09:18.637Z,1004.96
2017-10-20T02:10:18.674Z,1004.94
2017-10-20T02:11:18.700Z,1004.95
2017-10-20T02:12:18.737Z,1004.91
2017-10-20T02:13:18.782Z,1004.88
2017-10-20T02:14:19.107Z,1004.78
2017-10-20T02:15:18.835Z,1004.77
2017-10-20T02:16:18.919Z,1004.80
2017-10-20T02:17:18.899Z,1004.86
2017-10-20T02:18:18.954Z,1004.76
2017-10-20T02:19:18.968Z,1004.71
2017-10-20T02:20:19.309Z,1004.64
2017-10-20T02:21:19.065Z,1004.59
2017-10-20T02:22:19.077Z,1004.60
2017-10-20T02:23:19.161Z,1004.57
2017-10-20T02:24:19.304Z,1004.54
2017-10-20T02:25:19.174Z,1004.48
2017-10-20T02:26:19.499Z,1004.44
2017-10-20T02:27:19.251Z,1004.46
2017-10-20T02:28:19.320Z,1004.40
2017-10-20T02:29:19.306Z,1004.44
2017-10-20T02:30:19.342Z,1004.49
2017-10-20T02:31:19.369Z,1004.57
2017-10-20T02:32:19.884Z,1004.56
2017-10-20T02:33:19.436Z,1004.54
2017-10-20T02:34:19.539Z,1004.52
2017-10-20T02:35:19.507Z,1004.52
2017-10-20T02:36:19.561Z,1004.51
2017-10-20T02:37:19.569Z,1004.44
2017-10-20T02:38:19.908Z,1004.44
2017-10-20T02:39:19.635Z,1004.41
2017-10-20T02:40:19.681Z,1004.40
2017-10-20T02:41:19.716Z,1004.39
2017-10-20T02:42:19.745Z,1004.46
2017-10-20T02:43:19.931Z,1004.48
2017-10-20T02:44:20.169Z,1004.51
2017-10-20T02:45:19.842Z,1004.47
2017-10-20T02:46:19.924Z,1004.53
2017-10-20T02:47:19.911Z,1004.57
2017-10-20T02:48:20.269Z,1004.62
2017-10-20T02:49:19.976Z,1004.56
2017-10-20T02:50:20.301Z,1004.55
2017-10-20T02:51:20.043Z,1004.48
2017-10-20T02:52:20.070Z,1004.52
2017-10-20T02:53:20.104Z,1004.59
2017-10-20T02:54:20.153Z,1004.54
2017-10-20T02:55:20.201Z,1004.56
2017-10-20T02:56:20.504Z,1004.49
2017-10-20T02:57:20.239Z,1004.48
2017-10-20T02:58:20.273Z,1004.54
2017-10-20T02:59:20.332Z,1004.50
2017-10-20T03:00:20.347Z,1004.55
2017-10-20T03:01:20.382Z,1004.57
2017-10-20T03:02:20.705Z,1004.55
2017-10-20T03:03:20.435Z,1004.56
2017-10-20T03:04:20.470Z,1004.57
2017-10-20T03:05:20.519Z,1004.60
2017-10-20T03:06:20.588Z,1004.57
2017-10-20T03:07:20.567Z,1004.58
2017-10-20T03:08:20.610Z,1004.55
2017-10-20T03:09:20.936Z,1004.53
2017-10-20T03:10:20.746Z,1004.59
2017-10-20T03:11:20.702Z,1004.57
2017-10-20T03:12:20.751Z,1004.52
2017-10-20T03:13:20.771Z,1004.52
2017-10-20T03:14:21.259Z,1004.48
2017-10-20T03:15:21.140Z,1004.45
2017-10-20T03:16:20.882Z,1004.41
2017-10-20T03:17:20.966Z,1004.34
2017-10-20T03:18:20.940Z,1004.36
2017-10-20T03:19:20.975Z,1004.30
2017-10-20T03:20:21.039Z,1004.31
2017-10-20T03:21:21.338Z,1004.31
2017-10-20T03:22:21.114Z,1004.34
2017-10-20T03:23:21.111Z,1004.40
2017-10-20T03:24:21.269Z,1004.43
2017-10-20T03:25:21.532Z,1004.48
2017-10-20T03:26:21.209Z,1004.47
2017-10-20T03:27:21.543Z,1004.50
2017-10-20T03:28:21.279Z,1004.56
2017-10-20T03:29:21.329Z,1004.62
2017-10-20T03:30:21.354Z,1004.61
2017-10-20T03:31:21.372Z,1004.59
2017-10-20T03:32:21.409Z,1004.49
2017-10-20T03:33:21.760Z,1004.47
2017-10-20T03:34:21.490Z,1004.43
2017-10-20T03:35:21.513Z,1004.43
2017-10-20T03:36:21.542Z,1004.38
2017-10-20T03:37:21.582Z,1004.38
2017-10-20T03:38:21.639Z,1004.35
2017-10-20T03:39:21.953Z,1004.37
2017-10-20T03:40:21.692Z,1004.35
2017-10-20T03:41:21.710Z,1004.27
2017-10-20T03:42:21.739Z,1004.32
2017-10-20T03:43:21.776Z,1004.29
2017-10-20T03:44:21.808Z,1004.27
2017-10-20T03:45:22.153Z,1004.28
2017-10-20T03:46:21.893Z,1004.29
2017-10-20T03:48:21.993Z,1004.37
2017-10-20T03:49:21.983Z,1004.40
2017-10-20T03:50:22.009Z,1004.39
2017-10-20T03:51:22.345Z,1004.40
2017-10-20T03:52:22.137Z,1004.45
2017-10-20T03:53:22.114Z,1004.49
2017-10-20T03:54:22.138Z,1004.56
2017-10-20T03:55:22.176Z,1004.56
2017-10-20T03:56:22.216Z,1004.53
2017-10-20T03:57:22.545Z,1004.58
2017-10-20T03:58:22.280Z,1004.57
2017-10-20T03:59:22.356Z,1004.60
2017-10-20T04:00:22.406Z,1004.56
2017-10-20T04:01:22.372Z,1004.53
2017-10-20T04:02:22.406Z,1004.50
2017-10-20T04:03:22.754Z,1004.55
2017-10-20T04:04:22.483Z,1004.62
2017-10-20T04:05:22.574Z,1004.54
2017-10-20T04:06:22.544Z,1004.58
2017-10-20T04:07:22.573Z,1004.57
2017-10-20T04:08:22.613Z,1004.56
2017-10-20T04:09:22.644Z,1004.55
2017-10-20T04:10:22.996Z,1004.59
2017-10-20T04:11:22.721Z,1004.56
2017-10-20T04:12:22.767Z,1004.56
2017-10-20T04:13:22.777Z,1004.52
2017-10-20T04:14:22.807Z,1004.50
2017-10-20T04:15:22.840Z,1004.51
2017-10-20T04:16:23.204Z,1004.43
2017-10-20T04:17:22.904Z,1004.36
2017-10-20T04:18:22.945Z,1004.37
2017-10-20T04:19:23.029Z,1004.38
2017-10-20T04:20:23.061Z,1004.39
2017-10-20T04:21:23.047Z,1004.34
2017-10-20T04:22:23.376Z,1004.35
2017-10-20T04:23:23.116Z,1004.37
2017-10-20T04:24:23.148Z,1004.37
2017-10-20T04:25:23.235Z,1004.44
2017-10-20T04:26:23.213Z,1004.52
2017-10-20T04:27:23.252Z,1004.53
2017-10-20T04:28:23.577Z,1004.58
2017-10-20T04:29:23.321Z,1004.60
2017-10-20T04:30:23.339Z,1004.63
2017-10-20T04:31:23.381Z,1004.56
2017-10-20T04:32:23.411Z,1004.53
2017-10-20T04:33:23.448Z,1004.51
2017-10-20T04:34:23.845Z,1004.37
2017-10-20T04:35:23.517Z,1004.31
2017-10-20T04:36:23.544Z,1004.31
2017-10-20T04:37:23.572Z,1004.35
2017-10-20T04:38:23.613Z,1004.39
2017-10-20T04:39:23.675Z,1004.39
2017-10-20T04:40:23.979Z,1004.40
2017-10-20T04:41:23.713Z,1004.45
2017-10-20T04:42:23.746Z,1004.37
2017-10-20T04:43:23.770Z,1004.34
2017-10-20T04:44:23.884Z,1004.37
2017-10-20T04:45:23.838Z,1004.32
2017-10-20T04:46:24.177Z,1004.31
2017-10-20T04:47:23.902Z,1004.28
2017-10-20T04:48:24.010Z,1004.25
2017-10-20T04:49:24.013Z,1004.19
2017-10-20T04:50:24.009Z,1004.16
2017-10-20T04:51:24.066Z,1004.11
2017-10-20T04:52:24.397Z,1004.06
2017-10-20T04:53:24.448Z,1004.14
2017-10-20T04:54:24.136Z,1004.17
2017-10-20T04:55:24.171Z,1004.16
2017-10-20T04:56:24.232Z,1004.20
2017-10-20T04:57:24.238Z,1004.11
2017-10-20T04:58:24.570Z,1004.12
2017-10-20T04:59:24.302Z,1004.17
2017-10-20T05:00:24.337Z,1004.22
2017-10-20T05:01:24.376Z,1004.23
2017-10-20T05:02:24.404Z,1004.28
2017-10-20T05:03:24.455Z,1004.30
2017-10-20T05:04:24.807Z,1004.30
2017-10-20T05:05:24.506Z,1004.34
2017-10-20T05:06:24.535Z,1004.27
2017-10-20T05:07:24.567Z,1004.33
2017-10-20T05:08:24.613Z,1004.23
2017-10-20T05:09:24.634Z,1004.20
2017-10-20T05:10:24.965Z,1004.31
2017-10-20T05:11:24.702Z,1004.39
2017-10-20T05:12:24.736Z,1004.43
2017-10-20T05:13:24.767Z,1004.41
2017-10-20T05:14:24.850Z,1004.42
2017-10-20T05:15:24.858Z,1004.40
2017-10-20T05:16:25.170Z,1004.39
2017-10-20T05:17:24.927Z,1004.35
2017-10-20T05:18:24.933Z,1004.36
2017-10-20T05:19:24.966Z,1004.35
2017-10-20T05:20:25.001Z,1004.31
2017-10-20T05:21:25.039Z,1004.28
2017-10-20T05:22:25.369Z,1004.33
2017-10-20T05:23:25.111Z,1004.27
2017-10-20T05:24:25.134Z,1004.22
2017-10-20T05:25:25.240Z,1004.25
2017-10-20T05:26:25.205Z,1004.24
2017-10-20T05:27:25.233Z,1004.20
2017-10-20T05:28:25.567Z,1004.17
2017-10-20T05:29:25.300Z,1004.11
2017-10-20T05:30:25.342Z,1004.12
2017-10-20T05:31:25.434Z,1004.18
2017-10-20T05:32:25.401Z,1004.10
2017-10-20T05:33:25.456Z,1004.13
2017-10-20T05:34:25.777Z,1004.21
2017-10-20T05:35:25.495Z,1004.16
2017-10-20T05:36:25.532Z,1004.16
2017-10-20T05:37:25.565Z,1004.08
2017-10-20T05:38:25.649Z,1004.08
2017-10-20T05:39:25.634Z,1004.10
2017-10-20T05:40:25.966Z,1004.07
2017-10-20T05:41:25.698Z,1004.10
2017-10-20T05:42:25.731Z,1004.09
2017-10-20T05:43:26.018Z,1004.07
2017-10-20T05:44:25.803Z,1004.00
2017-10-20T05:45:25.829Z,1003.99
2017-10-20T05:46:26.167Z,1004.03
2017-10-20T05:47:25.905Z,1004.00
2017-10-20T05:48:25.929Z,1004.07
2017-10-20T05:49:25.977Z,1004.01
2017-10-20T05:50:25.994Z,1003.97
2017-10-20T05:51:26.041Z,1003.94
2017-10-20T05:52:26.369Z,1003.96
2017-10-20T05:53:26.093Z,1003.95
2017-10-20T05:54:26.143Z,1003.92
2017-10-20T05:55:26.163Z,1003.94
2017-10-20T05:56:26.264Z,1003.96
2017-10-20T05:57:26.291Z,1003.91
2017-10-20T05:58:26.588Z,1003.95
2017-10-20T05:59:26.352Z,1003.95
2017-10-20T06:00:26.345Z,1003.95
2017-10-20T06:01:26.375Z,1003.98
2017-10-20T06:02:26.416Z,1003.92
2017-10-20T06:03:26.437Z,1003.95
2017-10-20T06:04:26.793Z,1003.93
2017-10-20T06:05:26.655Z,1003.91
2017-10-20T06:06:26.601Z,1003.93
2017-10-20T06:07:26.568Z,1003.88
2017-10-20T06:08:26.607Z,1003.90
2017-10-20T06:09:26.627Z,1003.99
2017-10-20T06:10:26.966Z,1003.97
2017-10-20T06:11:26.692Z,1003.96
2017-10-20T06:12:26.725Z,1003.95
2017-10-20T06:13:26.757Z,1004.00
2017-10-20T06:14:26.797Z,1004.01
2017-10-20T06:15:26.832Z,1004.04
2017-10-20T06:16:27.235Z,1004.07
2017-10-20T06:17:26.908Z,1004.09
2017-10-20T06:18:26.928Z,1004.11
2017-10-20T06:19:26.957Z,1004.11
2017-10-20T06:20:27.142Z,1004.15
2017-10-20T06:21:27.020Z,1004.15
2017-10-20T06:22:27.369Z,1004.11
2017-10-20T06:23:27.087Z,1004.10
2017-10-20T06:24:27.120Z,1004.11
2017-10-20T06:25:27.162Z,1004.04
2017-10-20T06:26:27.189Z,1003.99
2017-10-20T06:27:27.229Z,1003.96
2017-10-20T06:28:27.557Z,1003.93
2017-10-20T06:29:27.308Z,1003.97
2017-10-20T06:30:27.322Z,1003.94
2017-10-20T06:31:27.361Z,1003.97
2017-10-20T06:32:27.390Z,1003.95
2017-10-20T06:33:27.425Z,1003.90
2017-10-20T06:34:27.767Z,1003.98
2017-10-20T06:35:27.490Z,1003.94
2017-10-20T06:36:27.559Z,1003.92
2017-10-20T06:37:27.573Z,1003.97
2017-10-20T06:38:27.597Z,1003.92
2017-10-20T06:39:27.639Z,1003.95
2017-10-20T06:40:27.972Z,1003.94
2017-10-20T06:41:27.688Z,1003.99
2017-10-20T06:42:27.721Z,1004.03
2017-10-20T06:43:27.755Z,1004.08
2017-10-20T06:44:27.813Z,1004.12
2017-10-20T06:45:27.831Z,1004.09
2017-10-20T06:46:28.159Z,1004.16
2017-10-20T06:47:27.887Z,1004.15
2017-10-20T06:48:27.925Z,1004.16
2017-10-20T06:49:27.955Z,1004.21
2017-10-20T06:50:27.992Z,1004.30
2017-10-20T06:51:28.029Z,1004.30
2017-10-20T06:52:28.353Z,1004.25
2017-10-20T06:53:28.086Z,1004.21
2017-10-20T06:54:28.119Z,1004.22
2017-10-20T06:55:28.175Z,1004.20
2017-10-20T06:56:28.188Z,1004.24
2017-10-20T06:57:28.219Z,1004.27
2017-10-20T06:58:28.563Z,1004.24
2017-10-20T06:59:28.291Z,1004.22
2017-10-20T07:00:28.380Z,1004.18
2017-10-20T07:01:28.361Z,1004.16
2017-10-20T07:02:28.396Z,1004.18
2017-10-20T07:03:28.430Z,1004.15
2017-10-20T07:04:28.765Z,1004.16
2017-10-20T07:05:28.490Z,1004.15
2017-10-20T07:06:28.541Z,1004.07
2017-10-20T07:07:28.603Z,1004.12
2017-10-20T07:08:28.609Z,1004.11
2017-10-20T07:09:28.621Z,1004.02
2017-10-20T07:10:28.982Z,1004.06
2017-10-20T07:11:28.687Z,1004.10
2017-10-20T07:12:28.923Z,1004.11
2017-10-20T07:13:28.753Z,1004.05
2017-10-20T07:14:28.800Z,1004.12
2017-10-20T07:15:28.872Z,1004.05
2017-10-20T07:16:29.162Z,1004.06
2017-10-20T07:17:28.885Z,1004.11
2017-10-20T07:18:28.945Z,1004.13
2017-10-20T07:19:28.963Z,1004.03
2017-10-20T07:20:28.992Z,1004.09
2017-10-20T07:21:29.028Z,1004.03
2017-10-20T07:22:29.356Z,1004.04
2017-10-20T07:23:29.248Z,1004.10
2017-10-20T07:24:29.122Z,1004.07
2017-10-20T07:25:29.155Z,1004.00
2017-10-20T07:26:29.192Z,1004.06
2017-10-20T07:27:29.247Z,1004.02
2017-10-20T07:28:29.764Z,1004.03
2017-10-20T07:29:29.292Z,1004.07
2017-10-20T07:30:29.331Z,1004.11
2017-10-20T07:31:29.355Z,1004.14
2017-10-20T07:32:29.391Z,1004.13
2017-10-20T07:33:29.422Z,1004.14
2017-10-20T07:34:29.778Z,1004.17
2017-10-20T07:35:29.492Z,1004.12
2017-10-20T07:36:29.524Z,1004.11
2017-10-20T07:37:29.562Z,1004.11
2017-10-20T07:38:29.602Z,1004.05
2017-10-20T07:39:29.727Z,1004.05
2017-10-20T07:40:29.958Z,1004.09
2017-10-20T07:41:29.719Z,1004.07
2017-10-20T07:42:29.738Z,1004.09
2017-10-20T07:43:29.761Z,1004.16
2017-10-20T07:44:29.865Z,1004.14
2017-10-20T07:45:29.872Z,1004.19
2017-10-20T07:46:30.217Z,1004.16
2017-10-20T07:47:29.893Z,1004.18
2017-10-20T07:48:29.926Z,1004.25
2017-10-20T07:49:30.001Z,1004.19
2017-10-20T07:50:29.993Z,1004.18
2017-10-20T07:51:30.024Z,1004.28
2017-10-20T07:52:30.378Z,1004.26
2017-10-20T07:53:30.121Z,1004.25
2017-10-20T07:54:30.128Z,1004.27
2017-10-20T07:55:30.166Z,1004.24
2017-10-20T07:56:30.198Z,1004.23
2017-10-20T07:57:30.230Z,1004.25
2017-10-20T07:58:30.565Z,1004.23
2017-10-20T07:59:30.302Z,1004.28
2017-10-20T08:00:30.329Z,1004.25
2017-10-20T08:01:30.377Z,1004.29
2017-10-20T08:02:30.392Z,1004.30
2017-10-20T08:03:30.428Z,1004.31
2017-10-20T08:04:30.915Z,1004.38
2017-10-20T08:05:30.494Z,1004.35
2017-10-20T08:06:30.527Z,1004.41
2017-10-20T08:07:30.762Z,1004.40
2017-10-20T08:08:30.598Z,1004.43
2017-10-20T08:09:30.630Z,1004.39
2017-10-20T08:10:30.963Z,1004.42
2017-10-20T08:11:30.724Z,1004.42
2017-10-20T08:12:30.726Z,1004.40
2017-10-20T08:13:30.766Z,1004.44
2017-10-20T08:14:30.813Z,1004.46
2017-10-20T08:15:30.829Z,1004.48
2017-10-20T08:16:31.168Z,1004.47
2017-10-20T08:17:30.899Z,1004.45
2017-10-20T08:18:30.927Z,1004.43
2017-10-20T08:19:30.995Z,1004.45
2017-10-20T08:20:30.995Z,1004.47
2017-10-20T08:21:31.035Z,1004.51
2017-10-20T08:22:31.413Z,1004.60
2017-10-20T08:23:31.098Z,1004.63
2017-10-20T08:24:31.146Z,1004.62
2017-10-20T08:25:31.161Z,1004.62
2017-10-20T08:26:31.209Z,1004.60
2017-10-20T08:27:31.281Z,1004.69
2017-10-20T08:28:31.584Z,1004.70
2017-10-20T08:30:31.342Z,1004.76
2017-10-20T08:31:31.366Z,1004.85
2017-10-20T08:32:31.413Z,1004.97
2017-10-20T08:33:31.433Z,1005.18
2017-10-20T08:34:31.935Z,1005.30
2017-10-20T08:35:31.499Z,1005.28
2017-10-20T08:36:31.634Z,1005.31
2017-10-20T08:37:31.571Z,1005.31
2017-10-20T08:39:31.631Z,1005.34
2017-10-20T08:40:31.974Z,1005.40
2017-10-20T08:41:31.699Z,1005.42
2017-10-20T08:42:31.740Z,1005.44
2017-10-20T08:43:31.772Z,1005.39
2017-10-20T08:44:31.923Z,1005.44
2017-10-20T08:46:32.358Z,1005.45
2017-10-20T08:47:32.028Z,1005.43
2017-10-20T08:48:32.025Z,1005.48
2017-10-20T08:49:32.056Z,1005.50
2017-10-20T08:50:32.257Z,1005.49
2017-10-20T08:52:32.568Z,1005.43
2017-10-20T08:53:32.093Z,1005.48
2017-10-20T08:54:32.144Z,1005.50
2017-10-20T08:55:32.195Z,1005.53
2017-10-20T08:56:32.361Z,1005.56
2017-10-20T08:57:32.481Z,1005.49
2017-10-20T08:58:32.576Z,1005.48
2017-10-20T08:59:32.292Z,1005.47
2017-10-20T09:00:32.326Z,1005.46
2017-10-20T09:01:32.795Z,1005.45
2017-10-20T09:02:32.419Z,1005.37
2017-10-20T09:03:32.487Z,1005.36
2017-10-20T09:04:32.848Z,1005.40
2017-10-20T09:05:32.510Z,1005.46
2017-10-20T09:06:32.530Z,1005.52
2017-10-20T09:07:32.624Z,1005.55
2017-10-20T09:08:32.606Z,1005.55
2017-10-20T09:09:32.641Z,1005.55
2017-10-20T09:10:32.972Z,1005.62
2017-10-20T09:11:32.705Z,1005.64
2017-10-20T09:12:32.734Z,1005.52
2017-10-20T09:13:32.780Z,1005.61
2017-10-20T09:14:32.809Z,1005.61
2017-10-20T09:16:33.181Z,1005.60
2017-10-20T09:17:33.063Z,1005.65
2017-10-20T09:18:33.080Z,1005.58
2017-10-20T09:19:32.963Z,1005.63
2017-10-20T09:20:33.010Z,1005.64
2017-10-20T09:21:33.028Z,1005.68
2017-10-20T09:22:33.430Z,1005.63
2017-10-20T09:23:33.094Z,1005.67
2017-10-20T09:24:33.130Z,1005.62
2017-10-20T09:25:33.161Z,1005.74
2017-10-20T09:26:33.208Z,1005.69
2017-10-20T09:27:33.230Z,1005.70
2017-10-20T09:28:33.570Z,1005.70
2017-10-20T09:29:33.300Z,1005.73
2017-10-20T09:30:33.332Z,1005.76
2017-10-20T09:31:33.362Z,1005.73
2017-10-20T09:32:33.406Z,1005.75
2017-10-20T09:33:33.448Z,1005.82
2017-10-20T09:34:33.774Z,1005.74
2017-10-20T09:35:33.497Z,1005.83
2017-10-20T09:36:33.542Z,1005.79
2017-10-20T09:37:33.572Z,1005.81
2017-10-20T09:38:33.598Z,1005.84
2017-10-20T09:39:33.636Z,1005.84
2017-10-20T09:40:34.021Z,1005.89
2017-10-20T09:41:33.730Z,1005.94
2017-10-20T09:42:33.738Z,1005.94
2017-10-20T09:43:33.795Z,1005.95
2017-10-20T09:44:33.799Z,1005.99
2017-10-20T09:45:33.920Z,1006.04
2017-10-20T09:46:34.166Z,1005.98
2017-10-20T09:47:33.901Z,1005.96
2017-10-20T09:48:33.964Z,1006.01
2017-10-20T09:49:33.981Z,1005.99
2017-10-20T09:50:34.010Z,1006.00
2017-10-20T09:51:34.033Z,1005.98
2017-10-20T09:52:34.370Z,1006.00
2017-10-20T09:53:34.173Z,1006.00
2017-10-20T09:54:34.138Z,1006.07
2017-10-20T09:55:34.177Z,1006.04
2017-10-20T09:56:34.225Z,1006.11
2017-10-20T09:57:34.234Z,1006.06
2017-10-20T09:58:34.569Z,1006.13
2017-10-20T09:59:34.301Z,1006.12
2017-10-20T10:00:34.344Z,1006.13
2017-10-20T10:01:34.372Z,1006.20
2017-10-20T10:02:34.405Z,1006.09
2017-10-20T10:03:34.437Z,1006.14
2017-10-20T10:04:34.831Z,1006.19
2017-10-20T10:05:34.508Z,1006.11
2017-10-20T10:06:34.552Z,1006.14
2017-10-20T10:07:34.573Z,1006.23
2017-10-20T10:08:34.610Z,1006.19
2017-10-20T10:09:34.645Z,1006.24
2017-10-20T10:10:34.976Z,1006.23
2017-10-20T10:11:35.058Z,1006.30
2017-10-20T10:12:34.740Z,1006.28
2017-10-20T10:13:34.773Z,1006.32
2017-10-20T10:14:34.803Z,1006.33
2017-10-20T10:15:34.861Z,1006.36
2017-10-20T10:16:35.220Z,1006.28
2017-10-20T10:17:34.900Z,1006.35
2017-10-20T10:18:34.942Z,1006.36
2017-10-20T10:19:35.032Z,1006.33
2017-10-20T10:20:35.018Z,1006.32
2017-10-20T10:21:35.048Z,1006.44
2017-10-20T10:22:35.411Z,1006.38
2017-10-20T10:23:35.129Z,1006.42
2017-10-20T10:24:35.244Z,1006.50
2017-10-20T10:25:35.200Z,1006.41
2017-10-20T10:26:35.257Z,1006.39
2017-10-20T10:27:35.246Z,1006.43
2017-10-20T10:28:35.623Z,1006.40
2017-10-20T10:29:35.309Z,1006.38
2017-10-20T10:30:35.337Z,1006.36
2017-10-20T10:31:35.376Z,1006.44
2017-10-20T10:32:35.405Z,1006.55
2017-10-20T10:33:35.461Z,1006.46
2017-10-20T10:34:35.771Z,1006.50
2017-10-20T10:35:35.549Z,1006.44
2017-10-20T10:36:35.542Z,1006.50
2017-10-20T10:37:35.696Z,1006.45
2017-10-20T10:38:35.619Z,1006.52
2017-10-20T10:39:35.840Z,1006.55
2017-10-20T10:40:35.976Z,1006.50
2017-10-20T10:41:35.709Z,1006.54
2017-10-20T10:42:35.737Z,1006.55
2017-10-20T10:43:35.772Z,1006.55
2017-10-20T10:44:35.873Z,1006.61
2017-10-20T10:45:35.849Z,1006.63
2017-10-20T10:46:36.191Z,1006.62
2017-10-20T10:47:35.920Z,1006.63
2017-10-20T10:48:35.950Z,1006.59
2017-10-20T10:49:36.028Z,1006.59
2017-10-20T10:50:36.020Z,1006.69
2017-10-20T10:51:36.049Z,1006.62
2017-10-20T10:52:36.384Z,1006.57
2017-10-20T10:53:36.119Z,1006.64
2017-10-20T10:54:36.475Z,1006.65
2017-10-20T10:55:36.229Z,1006.69
2017-10-20T10:56:36.212Z,1006.71
2017-10-20T10:57:36.259Z,1006.69
2017-10-20T10:58:36.581Z,1006.77
2017-10-20T10:59:36.319Z,1006.66
2017-10-20T11:00:36.958Z,1006.66
2017-10-20T11:01:36.398Z,1006.63
2017-10-20T11:02:36.424Z,1006.66
2017-10-20T11:03:36.456Z,1006.72
2017-10-20T11:04:36.794Z,1006.71
2017-10-20T11:05:36.566Z,1006.70
2017-10-20T11:06:36.858Z,1006.76
2017-10-20T11:07:36.591Z,1006.70
2017-10-20T11:08:36.617Z,1006.76
2017-10-20T11:09:36.660Z,1006.71
2017-10-20T11:10:36.988Z,1006.73
2017-10-20T11:11:36.720Z,1006.67
2017-10-20T11:12:36.807Z,1006.58
2017-10-20T11:13:36.798Z,1006.64
2017-10-20T11:14:36.850Z,1006.66
2017-10-20T11:15:36.882Z,1006.64
2017-10-20T11:16:37.197Z,1006.72
2017-10-20T11:17:36.923Z,1006.64
2017-10-20T11:18:36.985Z,1006.70
2017-10-20T11:19:36.989Z,1006.77
2017-10-20T11:20:37.066Z,1006.74
2017-10-20T11:21:37.125Z,1006.71
2017-10-20T11:22:37.466Z,1006.68
2017-10-20T11:23:37.122Z,1006.68
2017-10-20T11:24:37.175Z,1006.64
2017-10-20T11:25:37.191Z,1006.66
2017-10-20T11:26:37.247Z,1006.77
2017-10-20T11:27:37.463Z,1006.77
2017-10-20T11:28:37.655Z,1006.70
2017-10-20T11:29:37.324Z,1006.71
2017-10-20T11:30:37.415Z,1006.77
2017-10-20T11:31:37.392Z,1006.70
2017-10-20T11:32:37.443Z,1006.78
2017-10-20T11:33:37.469Z,1006.76
2017-10-20T11:34:37.798Z,1006.77
2017-10-20T11:35:37.544Z,1006.74
2017-10-20T11:36:38.356Z,1006.71
2017-10-20T11:37:37.711Z,1006.65
2017-10-20T11:38:37.684Z,1006.69
2017-10-20T11:40:38.104Z,1006.70
2017-10-20T11:41:37.818Z,1006.62
2017-10-20T11:42:37.767Z,1006.69
2017-10-20T11:43:37.879Z,1006.68
2017-10-20T11:44:37.971Z,1006.68
2017-10-20T11:45:37.974Z,1006.67
2017-10-20T11:46:38.227Z,1006.66
2017-10-20T11:47:38.036Z,1006.65
2017-10-20T11:48:38.049Z,1006.67
2017-10-20T11:49:38.004Z,1006.74
2017-10-20T11:50:38.038Z,1006.74
2017-10-20T11:51:39.280Z,1006.79
2017-10-20T11:52:38.482Z,1006.66
2017-10-20T11:53:38.335Z,1006.76
2017-10-20T11:54:38.367Z,1006.70
2017-10-20T11:55:38.375Z,1006.75
2017-10-20T11:56:38.416Z,1006.74
2017-10-20T11:57:38.281Z,1006.82
2017-10-20T11:58:38.664Z,1006.78
2017-10-20T11:59:38.491Z,1006.77
2017-10-20T12:00:38.531Z,1006.79
2017-10-20T12:01:38.409Z,1006.80
2017-10-20T12:02:38.451Z,1006.84
2017-10-20T12:03:38.483Z,1006.80
2017-10-20T12:04:38.814Z,1006.78
2017-10-20T12:05:38.547Z,1006.80
2017-10-20T12:06:38.588Z,1006.85
2017-10-20T12:07:38.704Z,1006.78
2017-10-20T12:08:38.654Z,1006.79
2017-10-20T12:09:38.696Z,1006.86
2017-10-20T12:10:39.020Z,1006.80
2017-10-20T12:11:38.753Z,1006.84
2017-10-20T12:12:38.785Z,1006.85
2017-10-20T12:13:38.850Z,1006.87